createdAt,value
2019-03-12T00:01:51.096Z,51.14
2019-03-12T00:04:21.571Z,51.13
2019-03-12T00:06:52.069Z,51.02
2019-03-12T00:09:22.672Z,51.05
2019-03-12T00:11:53.128Z,51.19
2019-03-12T00:14:23.583Z,51.50
2019-03-12T00:16:54.066Z,51.49
2019-03-12T00:19:24.516Z,51.96
2019-03-12T00:21:55.005Z,52.21
2019-03-12T00:24:25.554Z,52.08
2019-03-12T00:26:56.055Z,52.43
2019-03-12T00:29:26.514Z,52.25
2019-03-12T00:31:57.003Z,51.99
2019-03-12T00:34:27.447Z,52.33
2019-03-12T00:36:58.007Z,52.38
2019-03-12T00:39:28.464Z,52.27
2019-03-12T00:41:58.952Z,52.28
2019-03-12T00:44:29.428Z,52.40
2019-03-12T00:46:59.984Z,52.16
2019-03-12T00:49:30.465Z,52.43
2019-03-12T00:52:00.915Z,52.45
2019-03-12T00:54:31.403Z,52.36
2019-03-12T00:57:01.868Z,52.40
2019-03-12T00:59:32.374Z,52.25
2019-03-12T01:02:02.825Z,52.39
2019-03-12T01:04:33.329Z,52.61
2019-03-12T01:07:03.784Z,52.34
2019-03-12T01:09:34.271Z,52.40
2019-03-12T01:12:04.823Z,52.21
2019-03-12T01:14:35.307Z,52.45
2019-03-12T01:17:05.860Z,52.45
2019-03-12T01:19:36.348Z,53.10
2019-03-12T01:22:06.910Z,52.82
2019-03-12T01:24:37.398Z,52.99
2019-03-12T01:27:07.843Z,52.75
2019-03-12T01:29:38.333Z,52.77
2019-03-12T01:32:08.790Z,52.41
2019-03-12T01:34:39.278Z,52.43
2019-03-12T01:37:09.730Z,52.45
2019-03-12T01:39:40.171Z,52.34
2019-03-12T01:42:10.672Z,51.96
2019-03-12T01:44:41.158Z,51.87
2019-03-12T01:47:11.616Z,51.66
2019-03-12T01:49:42.100Z,51.56
2019-03-12T01:52:12.554Z,51.26
2019-03-12T01:54:43.012Z,51.41
2019-03-12T01:57:13.504Z,51.54
2019-03-12T01:59:43.953Z,51.06
2019-03-12T02:02:14.548Z,50.89
2019-03-12T02:04:45.007Z,50.60
2019-03-12T02:07:15.500Z,50.30
2019-03-12T02:09:46.004Z,50.33
2019-03-12T02:12:16.458Z,50.67
2019-03-12T02:14:46.945Z,50.51
2019-03-12T02:17:17.386Z,49.75
2019-03-12T02:19:47.867Z,50.02
2019-03-12T02:22:18.353Z,50.21
2019-03-12T02:24:53.063Z,49.94
2019-03-12T02:27:21.128Z,49.88
2019-03-12T02:29:51.680Z,50.38
2019-03-12T02:32:22.137Z,50.21
2019-03-12T02:34:52.627Z,50.76
2019-03-12T02:37:23.103Z,50.53
2019-03-12T02:39:53.552Z,50.58
2019-03-12T02:42:24.037Z,50.67
2019-03-12T02:44:54.483Z,50.67
2019-03-12T02:47:24.978Z,50.22
2019-03-12T02:49:55.456Z,50.55
2019-03-12T02:52:25.908Z,50.30
2019-03-12T02:54:56.400Z,50.40
2019-03-12T02:57:26.893Z,50.69
2019-03-12T02:59:57.351Z,50.99
2019-03-12T03:02:27.809Z,50.93
2019-03-12T03:04:58.407Z,50.38
2019-03-12T03:07:46.192Z,50.84
2019-03-12T03:10:16.649Z,50.50
2019-03-12T03:12:47.249Z,51.05
2019-03-12T03:15:19.690Z,51.06
2019-03-12T03:17:50.283Z,50.72
2019-03-12T03:20:20.776Z,50.78
2019-03-12T03:22:51.342Z,50.59
2019-03-12T03:25:22.035Z,50.80
2019-03-12T03:27:52.517Z,50.96
2019-03-12T03:30:24.256Z,51.03
2019-03-12T03:32:54.844Z,50.56
2019-03-12T03:35:25.293Z,50.53
2019-03-12T03:37:55.790Z,50.31
2019-03-12T03:40:26.247Z,50.20
2019-03-12T03:42:56.753Z,50.33
2019-03-12T03:45:27.309Z,50.37
2019-03-12T03:47:57.905Z,50.34
2019-03-12T03:50:28.392Z,50.10
2019-03-12T03:52:58.842Z,50.17
2019-03-12T03:55:29.295Z,49.96
2019-03-12T03:57:59.997Z,50.35
2019-03-12T04:00:30.525Z,50.42
2019-03-12T04:03:00.985Z,50.33
2019-03-12T04:05:31.424Z,50.57
2019-03-12T04:08:01.906Z,50.75
2019-03-12T04:10:32.436Z,49.99
2019-03-12T04:13:02.937Z,50.17
2019-03-12T04:15:33.404Z,49.91
2019-03-12T04:18:03.889Z,49.77
2019-03-12T04:20:34.455Z,49.72
2019-03-12T04:23:04.919Z,50.07
2019-03-12T04:25:35.383Z,50.22
2019-03-12T04:28:05.854Z,50.08
2019-03-12T04:30:36.304Z,50.31
2019-03-12T04:33:08.234Z,49.88
2019-03-12T04:35:38.672Z,50.19
2019-03-12T04:38:09.168Z,50.37
2019-03-12T04:40:39.610Z,50.11
2019-03-12T04:43:10.105Z,50.34
2019-03-12T04:45:40.539Z,50.29
2019-03-12T04:48:11.031Z,49.92
2019-03-12T04:50:41.521Z,49.96
2019-03-12T04:53:11.995Z,50.03
2019-03-12T04:55:42.471Z,49.96
2019-03-12T04:58:12.961Z,49.81
2019-03-12T05:00:43.467Z,50.08
2019-03-12T05:03:13.902Z,50.37
2019-03-12T05:05:44.351Z,50.56
2019-03-12T05:08:14.879Z,50.06
2019-03-12T05:10:45.409Z,50.19
2019-03-12T05:13:15.908Z,50.22
2019-03-12T05:15:46.361Z,50.27
2019-03-12T05:18:16.936Z,49.75
2019-03-12T05:20:47.523Z,49.76
2019-03-12T05:23:17.974Z,49.98
2019-03-12T05:25:48.429Z,49.75
2019-03-12T05:28:18.919Z,49.78
2019-03-12T05:30:49.491Z,49.49
2019-03-12T05:33:20.010Z,49.32
2019-03-12T05:35:50.442Z,49.47
2019-03-12T05:38:20.885Z,49.35
2019-03-12T05:40:51.366Z,49.21
2019-03-12T05:43:21.932Z,49.55
2019-03-12T05:45:52.392Z,49.22
2019-03-12T05:48:22.884Z,49.59
2019-03-12T05:50:53.379Z,49.61
2019-03-12T05:53:28.970Z,49.72
2019-03-12T05:55:59.463Z,49.32
2019-03-12T05:58:29.902Z,49.64
2019-03-12T06:01:00.395Z,49.72
2019-03-12T06:03:30.893Z,49.10
2019-03-12T06:06:01.347Z,48.96
2019-03-12T06:08:31.835Z,48.99
2019-03-12T06:11:02.348Z,49.20
2019-03-12T06:13:32.809Z,49.23
2019-03-12T06:16:03.378Z,48.84
2019-03-12T06:18:33.828Z,49.09
2019-03-12T06:21:04.294Z,48.85
2019-03-12T06:23:34.894Z,49.13
2019-03-12T06:26:05.459Z,48.89
2019-03-12T06:28:36.168Z,49.40
2019-03-12T06:31:23.578Z,49.77
2019-03-12T06:34:15.299Z,49.71
2019-03-12T06:37:16.906Z,50.00
2019-03-12T06:40:03.789Z,50.10
2019-03-12T06:42:59.269Z,49.95
2019-03-12T06:45:38.538Z,50.10
2019-03-12T06:48:27.871Z,50.27
2019-03-12T06:51:14.565Z,50.37
2019-03-12T06:54:06.428Z,50.76
2019-03-12T06:57:04.980Z,50.48
2019-03-12T07:00:01.482Z,50.82
2019-03-12T07:02:48.920Z,50.59
2019-03-12T07:05:31.470Z,50.44
2019-03-12T07:08:14.125Z,50.60
2019-03-12T07:11:08.906Z,50.90
2019-03-12T07:14:04.082Z,50.25
2019-03-12T07:16:56.475Z,50.67
2019-03-12T07:20:03.867Z,50.55
2019-03-12T07:22:56.101Z,50.48
2019-03-12T07:25:51.427Z,51.25
2019-03-12T07:28:35.770Z,50.36
2019-03-12T07:31:31.082Z,50.14
2019-03-12T07:34:37.042Z,50.06
2019-03-12T07:37:44.442Z,49.80
2019-03-12T07:40:32.430Z,49.97
2019-03-12T07:43:11.886Z,49.58
2019-03-12T07:45:48.420Z,49.50
2019-03-12T07:48:32.538Z,49.34
2019-03-12T07:51:30.686Z,48.74
2019-03-12T07:54:17.522Z,48.80
2019-03-12T07:57:06.766Z,48.54
2019-03-12T07:59:58.997Z,48.11
2019-03-12T08:02:40.905Z,47.54
2019-03-12T08:05:48.446Z,47.30
2019-03-12T08:08:35.838Z,47.11
2019-03-12T08:11:37.041Z,46.66
2019-03-12T08:14:15.534Z,46.74
2019-03-12T08:17:03.461Z,46.18
2019-03-12T08:19:51.565Z,45.83
2019-03-12T08:22:41.015Z,46.14
2019-03-12T08:25:26.176Z,45.90
2019-03-12T08:28:21.362Z,45.81
2019-03-12T08:31:06.403Z,45.78
2019-03-12T08:33:58.964Z,45.71
2019-03-12T08:37:00.515Z,45.73
2019-03-12T08:39:48.290Z,45.64
2019-03-12T08:42:54.410Z,45.65
2019-03-12T08:45:54.125Z,45.25
2019-03-12T08:48:49.604Z,45.51
2019-03-12T08:51:41.201Z,45.73
2019-03-12T08:54:30.524Z,45.07
2019-03-12T08:57:31.751Z,45.01
2019-03-12T09:00:23.898Z,45.29
2019-03-12T09:03:12.237Z,44.72
2019-03-12T09:05:50.992Z,44.62
2019-03-12T09:08:31.752Z,44.97
2019-03-12T09:11:10.755Z,44.72
2019-03-12T09:14:00.051Z,44.67
2019-03-12T09:16:52.188Z,44.17
2019-03-12T09:19:41.480Z,44.25
2019-03-12T09:22:25.290Z,44.07
2019-03-12T09:25:27.229Z,43.53
2019-03-12T09:28:35.742Z,42.97
2019-03-12T09:31:37.161Z,42.75
2019-03-12T09:34:29.288Z,42.69
2019-03-12T09:37:29.050Z,42.68
2019-03-12T09:40:13.548Z,42.34
2019-03-12T09:43:08.844Z,42.27
2019-03-12T09:46:04.119Z,42.20
2019-03-12T09:48:47.954Z,42.24
2019-03-12T09:51:46.494Z,42.11
2019-03-12T09:54:34.254Z,41.71
2019-03-12T09:57:17.177Z,41.63
2019-03-12T10:00:15.427Z,41.66
2019-03-12T10:03:14.128Z,41.33
2019-03-12T10:06:02.132Z,41.42
2019-03-12T10:09:06.632Z,41.25
2019-03-12T10:12:01.893Z,41.85
2019-03-12T10:15:09.668Z,41.09
2019-03-12T10:17:57.217Z,41.49
2019-03-12T10:20:52.265Z,41.81
2019-03-12T10:23:40.998Z,41.57
2019-03-12T10:26:39.268Z,42.22
2019-03-12T10:29:16.279Z,42.39
2019-03-12T10:31:58.836Z,42.23
2019-03-12T10:34:35.547Z,42.42
2019-03-12T10:37:25.047Z,43.02
2019-03-12T10:40:19.956Z,42.50
2019-03-12T10:43:15.348Z,41.72
2019-03-12T10:45:57.375Z,41.25
2019-03-12T10:48:28.641Z,40.96
2019-03-12T10:50:59.223Z,40.77
2019-03-12T10:53:29.745Z,40.66
2019-03-12T10:56:00.259Z,40.55
2019-03-12T10:58:30.770Z,40.57
2019-03-12T11:01:01.664Z,40.58
2019-03-12T11:03:32.263Z,40.17
2019-03-12T11:06:03.028Z,40.46
2019-03-12T11:08:33.573Z,40.29
2019-03-12T11:11:08.702Z,40.29
2019-03-12T11:13:39.273Z,40.24
2019-03-12T11:16:09.976Z,40.33
2019-03-12T11:18:40.453Z,40.54
2019-03-12T11:21:10.920Z,40.72
2019-03-12T11:23:41.491Z,40.53
2019-03-12T11:26:11.949Z,41.16
2019-03-12T11:28:42.762Z,40.75
2019-03-12T11:31:13.280Z,41.21
2019-03-12T11:33:43.817Z,41.00
2019-03-12T11:36:14.423Z,41.02
2019-03-12T11:38:45.341Z,40.73
2019-03-12T11:41:18.902Z,41.46
2019-03-12T11:43:49.434Z,42.27
2019-03-12T11:46:19.977Z,42.77
2019-03-12T11:48:50.443Z,43.14
2019-03-12T11:51:20.950Z,43.72
2019-03-12T11:53:51.408Z,44.18
2019-03-12T11:56:21.941Z,44.31
2019-03-12T11:58:52.402Z,44.98
2019-03-12T12:01:22.958Z,45.80
2019-03-12T12:03:53.522Z,46.65
2019-03-12T12:06:24.398Z,47.91
2019-03-12T12:08:55.913Z,47.78
2019-03-12T12:11:26.548Z,48.10
2019-03-12T12:13:57.269Z,49.31
2019-03-12T12:16:27.873Z,49.49
2019-03-12T12:18:58.481Z,47.93
2019-03-12T12:21:30.419Z,47.59
2019-03-12T12:24:00.914Z,48.35
2019-03-12T12:26:32.739Z,48.45
2019-03-12T12:29:03.259Z,49.96
2019-03-12T12:31:33.750Z,48.61
2019-03-12T12:34:04.470Z,48.95
2019-03-12T12:36:34.961Z,48.56
2019-03-12T12:39:07.196Z,48.49
2019-03-12T12:41:37.669Z,48.28
2019-03-12T12:44:08.155Z,47.62
2019-03-12T12:46:38.676Z,47.80
2019-03-12T12:49:10.152Z,46.71
2019-03-12T12:51:40.789Z,46.92
2019-03-12T12:54:11.326Z,53.72
2019-03-12T12:56:41.884Z,55.47
2019-03-12T12:59:12.409Z,55.62
2019-03-12T13:01:43.084Z,55.77
2019-03-12T13:04:13.617Z,56.85
2019-03-12T13:06:44.099Z,56.26
2019-03-12T13:09:14.900Z,56.35
2019-03-12T13:11:45.376Z,55.77
2019-03-12T13:14:16.043Z,56.11
2019-03-12T13:16:47.498Z,57.62
2019-03-12T13:19:18.041Z,57.76
2019-03-12T13:21:48.511Z,56.77
2019-03-12T13:24:19.054Z,57.35
2019-03-12T13:26:49.587Z,56.82
2019-03-12T13:29:20.129Z,56.44
2019-03-12T13:31:50.742Z,56.14
2019-03-12T13:34:21.189Z,56.03
2019-03-12T13:36:51.774Z,55.56
2019-03-12T13:39:22.314Z,55.46
2019-03-12T13:41:52.881Z,54.79
2019-03-12T13:44:23.437Z,54.69
2019-03-12T13:46:53.998Z,54.19
2019-03-12T13:49:24.502Z,54.70
2019-03-12T13:51:54.964Z,53.85
2019-03-12T13:54:25.584Z,52.93
2019-03-12T13:56:56.173Z,52.50
2019-03-12T13:59:27.740Z,52.72
2019-03-12T14:01:58.289Z,52.52
2019-03-12T14:04:28.850Z,53.72
2019-03-12T14:06:59.435Z,53.53
2019-03-12T14:09:30.173Z,53.83
2019-03-12T14:12:00.635Z,54.25
2019-03-12T14:14:31.245Z,54.36
2019-03-12T14:17:01.706Z,54.36
2019-03-12T14:19:32.319Z,53.54
2019-03-12T14:22:05.578Z,53.42
2019-03-12T14:24:36.647Z,54.26
2019-03-12T14:27:07.128Z,53.56
2019-03-12T14:29:37.823Z,53.36
2019-03-12T14:32:08.419Z,52.79
2019-03-12T14:34:38.914Z,52.98
2019-03-12T14:37:09.431Z,54.87
2019-03-12T14:39:40.002Z,56.66
2019-03-12T14:42:10.512Z,54.52
2019-03-12T14:44:41.006Z,55.75
2019-03-12T14:47:11.490Z,57.19
2019-03-12T14:49:42.084Z,56.87
2019-03-12T14:52:22.797Z,56.34
2019-03-12T14:54:53.319Z,57.16
2019-03-12T14:57:24.231Z,58.01
2019-03-12T14:59:54.751Z,58.04
2019-03-12T15:02:25.383Z,58.03
2019-03-12T15:04:55.861Z,58.38
2019-03-12T15:07:26.589Z,58.55
2019-03-12T15:09:57.058Z,58.80
2019-03-12T15:12:27.510Z,59.20
2019-03-12T15:14:58.014Z,59.20
2019-03-12T15:17:28.466Z,59.66
2019-03-12T15:19:58.975Z,59.32
2019-03-12T15:22:29.522Z,59.27
2019-03-12T15:25:00.056Z,59.14
2019-03-12T15:27:30.561Z,59.54
2019-03-12T15:30:01.063Z,59.11
2019-03-12T15:32:31.562Z,59.27
2019-03-12T15:35:02.413Z,59.18
2019-03-12T15:37:32.910Z,59.57
2019-03-12T15:40:03.526Z,59.17
2019-03-12T15:42:33.979Z,59.39
2019-03-12T15:45:04.678Z,59.15
2019-03-12T15:47:38.786Z,59.38
2019-03-12T15:50:09.869Z,59.06
2019-03-12T15:52:39.919Z,58.57
2019-03-12T15:55:11.006Z,58.11
2019-03-12T15:57:41.545Z,58.70
2019-03-12T16:00:12.252Z,58.33
2019-03-12T16:02:42.736Z,58.27
2019-03-12T16:05:13.423Z,58.30
2019-03-12T16:07:43.913Z,58.40
2019-03-12T16:10:14.478Z,58.48
2019-03-12T16:12:44.976Z,58.32
2019-03-12T16:15:15.874Z,57.90
2019-03-12T16:17:46.318Z,57.69
2019-03-12T16:20:17.029Z,57.73
2019-03-12T16:22:47.482Z,57.64
2019-03-12T16:25:18.569Z,57.73
2019-03-12T16:27:49.159Z,57.48
2019-03-12T16:30:19.879Z,57.73
2019-03-12T16:32:50.473Z,57.79
2019-03-12T16:35:20.988Z,57.48
2019-03-12T16:37:51.443Z,57.36
2019-03-12T16:40:21.970Z,57.23
2019-03-12T16:42:52.422Z,57.38
2019-03-12T16:45:23.022Z,57.94
2019-03-12T16:47:53.631Z,57.41
2019-03-12T16:50:24.083Z,57.58
2019-03-12T16:52:54.572Z,57.07
2019-03-12T16:55:25.095Z,57.14
2019-03-12T16:57:55.563Z,57.32
2019-03-12T17:00:26.181Z,57.36
2019-03-12T17:02:56.763Z,57.52
2019-03-12T17:05:27.235Z,57.65
2019-03-12T17:07:57.720Z,57.81
2019-03-12T17:10:28.211Z,57.97
2019-03-12T17:12:58.671Z,57.98
2019-03-12T17:15:29.202Z,57.98
2019-03-12T17:17:59.658Z,57.99
2019-03-12T17:20:30.121Z,58.03
2019-03-12T17:23:00.560Z,57.94
2019-03-12T17:25:31.041Z,58.04
2019-03-12T17:28:01.529Z,57.42
2019-03-12T17:30:32.065Z,57.50
2019-03-12T17:33:02.562Z,57.59
2019-03-12T17:35:33.217Z,57.21
2019-03-12T17:38:03.674Z,57.37
2019-03-12T17:40:34.253Z,57.22
2019-03-12T17:43:04.872Z,57.17
2019-03-12T17:45:35.875Z,57.15
2019-03-12T17:48:06.680Z,56.90
2019-03-12T17:50:37.176Z,56.82
2019-03-12T17:53:07.744Z,56.78
2019-03-12T17:55:38.230Z,56.80
2019-03-12T17:58:08.716Z,57.04
2019-03-12T18:00:41.915Z,56.89
2019-03-12T18:03:12.458Z,57.08
2019-03-12T18:05:42.950Z,57.42
2019-03-12T18:08:13.398Z,57.35
2019-03-12T18:10:43.852Z,57.73
2019-03-12T18:13:14.340Z,58.37
2019-03-12T18:15:44.781Z,58.56
2019-03-12T18:18:15.261Z,58.68
2019-03-12T18:20:45.711Z,58.93
2019-03-12T18:23:16.242Z,59.15
2019-03-12T18:25:46.730Z,59.85
2019-03-12T18:28:17.185Z,60.17
2019-03-12T18:30:47.702Z,61.33
2019-03-12T18:33:18.190Z,60.76
2019-03-12T18:35:48.635Z,61.25
2019-03-12T18:38:19.134Z,61.47
2019-03-12T18:40:49.576Z,61.04
2019-03-12T18:43:20.364Z,60.32
2019-03-12T18:45:50.823Z,61.17
2019-03-12T18:48:21.319Z,60.08
2019-03-12T18:50:51.782Z,59.84
2019-03-12T18:53:22.261Z,60.01
2019-03-12T18:55:58.074Z,59.52
2019-03-12T18:58:28.551Z,58.98
2019-03-12T19:01:01.104Z,59.37
2019-03-12T19:03:31.582Z,58.50
2019-03-12T19:06:02.152Z,59.34
2019-03-12T19:08:32.695Z,59.28
2019-03-12T19:11:03.187Z,59.79
2019-03-12T19:13:33.696Z,59.85
2019-03-12T19:16:04.377Z,59.47
2019-03-12T19:18:34.931Z,59.47
2019-03-12T19:21:05.520Z,59.63
2019-03-12T19:23:35.983Z,59.77
2019-03-12T19:26:07.602Z,59.16
2019-03-12T19:28:38.087Z,59.20
2019-03-12T19:31:33.421Z,58.69
2019-03-12T19:34:08.286Z,58.91
2019-03-12T19:36:38.750Z,59.11
2019-03-12T19:39:11.568Z,59.16
2019-03-12T19:41:42.067Z,59.59
2019-03-12T19:44:12.514Z,59.44
2019-03-12T19:46:43.115Z,59.24
2019-03-12T19:49:13.813Z,59.07
2019-03-12T19:51:44.276Z,58.84
2019-03-12T19:54:14.881Z,59.16
2019-03-12T19:56:45.382Z,59.62
2019-03-12T19:59:15.935Z,60.01
2019-03-12T20:01:47.536Z,60.23
2019-03-12T20:04:17.983Z,60.73
2019-03-12T20:06:48.423Z,60.15
2019-03-12T20:09:32.730Z,60.43
2019-03-12T20:12:35.466Z,60.68
2019-03-12T20:15:48.955Z,60.36
2019-03-12T20:19:15.544Z,59.96
2019-03-12T20:22:21.178Z,59.72
2019-03-12T20:25:56.623Z,60.06
2019-03-12T20:29:10.500Z,60.50
2019-03-12T20:32:35.033Z,60.37
2019-03-12T20:36:01.322Z,60.18
2019-03-12T20:39:06.907Z,60.30
2019-03-12T20:42:12.564Z,60.86
2019-03-12T20:45:26.388Z,60.85
2019-03-12T20:48:36.146Z,61.20
2019-03-12T20:51:47.306Z,61.71
2019-03-12T20:55:07.036Z,62.19
2019-03-12T20:58:23.670Z,62.25
2019-03-12T21:01:31.658Z,62.72
2019-03-12T21:05:04.483Z,63.85
2019-03-12T21:08:23.353Z,64.52
2019-03-12T21:11:30.459Z,64.21
2019-03-12T21:14:44.794Z,64.49
2019-03-12T21:17:50.472Z,64.63
2019-03-12T21:20:55.965Z,65.38
2019-03-12T21:23:55.554Z,65.21
2019-03-12T21:26:56.114Z,65.76
2019-03-12T21:29:44.048Z,65.84
2019-03-12T21:32:15.453Z,65.78
2019-03-12T21:34:46.071Z,65.84
2019-03-12T21:37:16.840Z,66.65
2019-03-12T21:39:55.043Z,66.39
2019-03-12T21:42:19.678Z,66.94
2019-03-12T21:44:50.136Z,66.88
2019-03-12T21:47:20.705Z,67.18
2019-03-12T21:49:51.188Z,67.39
2019-03-12T21:52:21.652Z,66.98
2019-03-12T21:54:52.173Z,66.27
2019-03-12T21:57:22.684Z,67.04
2019-03-12T21:59:54.428Z,66.93
2019-03-12T22:02:24.915Z,67.32
2019-03-12T22:04:55.433Z,67.35
2019-03-12T22:07:25.914Z,67.78
2019-03-12T22:09:56.402Z,68.23
2019-03-12T22:12:26.909Z,68.03
2019-03-12T22:14:57.392Z,67.92
2019-03-12T22:17:27.961Z,67.43
2019-03-12T22:19:58.423Z,67.90
2019-03-12T22:22:56.922Z,67.66
2019-03-12T22:25:27.519Z,67.81
2019-03-12T22:27:58.048Z,67.56
2019-03-12T22:30:28.978Z,68.09
2019-03-12T22:32:59.574Z,68.16
2019-03-12T22:35:30.371Z,68.03
2019-03-12T22:38:02.267Z,68.63
2019-03-12T22:40:32.731Z,68.76
2019-03-12T22:43:03.205Z,68.15
2019-03-12T22:45:33.717Z,68.22
2019-03-12T22:48:04.298Z,68.67
2019-03-12T22:50:34.818Z,68.62
2019-03-12T22:53:05.290Z,68.25
2019-03-12T22:55:36.528Z,68.69
2019-03-12T22:58:06.999Z,69.25
2019-03-12T23:00:41.471Z,68.91
2019-03-12T23:03:12.140Z,68.69
2019-03-12T23:05:42.752Z,68.97
2019-03-12T23:08:13.597Z,69.04
2019-03-12T23:10:44.102Z,68.76
2019-03-12T23:13:14.931Z,68.89
2019-03-12T23:15:45.395Z,68.75
2019-03-12T23:18:15.877Z,68.76
2019-03-12T23:20:46.599Z,68.17
2019-03-12T23:23:17.187Z,67.78
2019-03-12T23:25:47.766Z,67.84
2019-03-12T23:28:18.293Z,68.34
2019-03-12T23:30:48.826Z,67.73
2019-03-12T23:33:19.478Z,67.81
2019-03-12T23:35:50.058Z,67.82
2019-03-12T23:38:20.644Z,67.29
2019-03-12T23:40:51.151Z,67.78
2019-03-12T23:43:21.853Z,67.61
2019-03-12T23:45:52.298Z,67.12
2019-03-12T23:48:23.014Z,67.36
2019-03-12T23:50:53.676Z,66.80
2019-03-12T23:53:24.115Z,66.68
2019-03-12T23:55:54.715Z,66.29
2019-03-12T23:58:30.616Z,66.77
